< Typhoon 196432 1964 Season Typhoon 196434 >
Typhoon 196433 (NORA)
General InformationTrack Information on Google Maps || Disaster Info.ResourceGoogle EarthGE AnimationAtom FeedGeoJSON
Detalied Best Track (Time Zone = UTC)
Year Month Day Hour Lat. Long. Pressure (hPa) Wind (kt) Class Image Chart
1964 11 26 18 11.5 119.5 1002 0 2 -- Chart
1964 11 27 00 11.3 120.8 1002 0 9 -- Chart
1964 11 27 06 11.8 121.5 995 0 9 -- Chart
1964 11 27 12 12.2 121.2 996 0 9 -- Chart
1964 11 27 18 12.5 121.0 1000 0 9 -- Chart
1964 11 28 00 12.9 121.5 1006 0 2 -- Chart
1964 11 28 06 13.5 122.2 1004 0 2 -- Chart
1964 11 28 12 14.4 122.5 1006 0 2 -- Chart
1964 11 28 18 15.1 122.5 1004 0 2 -- Chart
1964 11 29 00 15.5 122.8 1006 0 2 -- Chart
1964 11 29 06 16.0 123.0 1002 0 2 -- Chart
1964 11 29 12 16.5 123.2 1004 0 2 -- Chart
1964 11 29 18 16.9 123.5 1004 0 2 -- Chart
1964 11 30 00 17.4 123.7 1008 0 2 -- Chart
1964 11 30 06 17.5 124.5 1006 0 2 -- Chart
1964 11 30 12 17.5 125.2 1006 0 2 -- Chart
1964 11 30 18 17.5 125.7 1006 0 2 -- Chart
1964 12 1 00 17.5 126.5 1008 0 2 -- Chart
1964 12 1 06 17.4 127.5 1007 0 2 -- Chart
1964 12 1 12 17.0 128.2 1008 0 2 -- Chart
1964 12 1 18 16.6 128.5 1008 0 2 -- Chart
1964 12 2 00 16.3 128.7 1010 0 2 -- Chart
1964 12 2 06 16.0 129.0 1006 0 2 -- Chart
1964 12 2 12 15.0 129.9 1010 0 2 -- Chart
Japan Meteorological Agency Best Track Data | Correction Date : 1989-06-01
< Typhoon 196432 1964 Season Typhoon 196434 >

Help